sensor_id;sensor_type;location;lat;lon;timestamp;P1;durP1;ratioP1;P2;durP2;ratioP2
32876;SDS011;19226;51.600;8.034;2024-03-06T00:01:37;0.20;;;0.20;;
32876;SDS011;19226;51.600;8.034;2024-03-06T00:04:22;0.30;;;0.30;;
32876;SDS011;19226;51.600;8.034;2024-03-06T00:07:07;0.20;;;0.20;;
32876;SDS011;19226;51.600;8.034;2024-03-06T00:09:52;0.20;;;0.20;;
32876;SDS011;19226;51.600;8.034;2024-03-06T00:12:37;0.25;;;0.25;;
32876;SDS011;19226;51.600;8.034;2024-03-06T00:15:21;0.20;;;0.20;;
32876;SDS011;19226;51.600;8.034;2024-03-06T00:18:06;0.20;;;0.20;;
32876;SDS011;19226;51.600;8.034;2024-03-06T00:20:51;0.22;;;0.22;;
32876;SDS011;19226;51.600;8.034;2024-03-06T00:23:36;0.30;;;0.30;;
32876;SDS011;19226;51.600;8.034;2024-03-06T00:26:21;0.20;;;0.20;;
32876;SDS011;19226;51.600;8.034;2024-03-06T00:29:05;0.20;;;0.20;;
32876;SDS011;19226;51.600;8.034;2024-03-06T00:31:50;0.28;;;0.28;;
32876;SDS011;19226;51.600;8.034;2024-03-06T00:34:34;0.22;;;0.22;;
32876;SDS011;19226;51.600;8.034;2024-03-06T00:37:19;0.20;;;0.20;;
32876;SDS011;19226;51.600;8.034;2024-03-06T00:40:03;0.20;;;0.20;;
32876;SDS011;19226;51.600;8.034;2024-03-06T00:42:49;0.20;;;0.20;;
32876;SDS011;19226;51.600;8.034;2024-03-06T00:45:33;0.20;;;0.20;;
32876;SDS011;19226;51.600;8.034;2024-03-06T00:48:18;0.20;;;0.20;;
32876;SDS011;19226;51.600;8.034;2024-03-06T00:51:05;0.30;;;0.30;;
32876;SDS011;19226;51.600;8.034;2024-03-06T00:53:50;0.20;;;0.20;;
32876;SDS011;19226;51.600;8.034;2024-03-06T00:56:38;0.30;;;0.30;;
32876;SDS011;19226;51.600;8.034;2024-03-06T00:59:24;0.20;;;0.20;;
32876;SDS011;19226;51.600;8.034;2024-03-06T01:02:09;0.20;;;0.20;;
32876;SDS011;19226;51.600;8.034;2024-03-06T01:04:53;0.20;;;0.20;;
32876;SDS011;19226;51.600;8.034;2024-03-06T01:07:39;0.22;;;0.22;;
32876;SDS011;19226;51.600;8.034;2024-03-06T01:10:24;0.30;;;0.30;;
32876;SDS011;19226;51.600;8.034;2024-03-06T01:13:08;0.20;;;0.20;;
32876;SDS011;19226;51.600;8.034;2024-03-06T01:15:54;0.30;;;0.30;;
32876;SDS011;19226;51.600;8.034;2024-03-06T01:18:39;0.30;;;0.30;;
32876;SDS011;19226;51.600;8.034;2024-03-06T01:21:23;0.20;;;0.20;;
32876;SDS011;19226;51.600;8.034;2024-03-06T01:24:09;0.30;;;0.30;;
32876;SDS011;19226;51.600;8.034;2024-03-06T01:26:53;0.20;;;0.20;;
32876;SDS011;19226;51.600;8.034;2024-03-06T01:29:38;0.30;;;0.30;;
32876;SDS011;19226;51.600;8.034;2024-03-06T01:32:23;0.20;;;0.20;;
32876;SDS011;19226;51.600;8.034;2024-03-06T01:35:08;0.20;;;0.20;;
32876;SDS011;19226;51.600;8.034;2024-03-06T01:37:52;0.30;;;0.30;;
32876;SDS011;19226;51.600;8.034;2024-03-06T01:40:37;0.20;;;0.20;;
32876;SDS011;19226;51.600;8.034;2024-03-06T01:43:26;0.30;;;0.30;;
32876;SDS011;19226;51.600;8.034;2024-03-06T01:46:11;0.20;;;0.20;;
32876;SDS011;19226;51.600;8.034;2024-03-06T01:48:55;0.20;;;0.20;;
32876;SDS011;19226;51.600;8.034;2024-03-06T01:51:43;0.20;;;0.20;;
32876;SDS011;19226;51.600;8.034;2024-03-06T01:54:31;0.25;;;0.25;;
32876;SDS011;19226;51.600;8.034;2024-03-06T01:57:17;0.20;;;0.20;;
32876;SDS011;19226;51.600;8.034;2024-03-06T02:00:03;0.25;;;0.25;;
32876;SDS011;19226;51.600;8.034;2024-03-06T02:02:48;0.30;;;0.30;;
32876;SDS011;19226;51.600;8.034;2024-03-06T02:05:33;0.20;;;0.20;;
32876;SDS011;19226;51.600;8.034;2024-03-06T02:08:18;0.20;;;0.20;;
32876;SDS011;19226;51.600;8.034;2024-03-06T02:11:03;0.20;;;0.20;;
32876;SDS011;19226;51.600;8.034;2024-03-06T02:13:49;0.20;;;0.20;;
32876;SDS011;19226;51.600;8.034;2024-03-06T02:16:34;0.20;;;0.20;;
32876;SDS011;19226;51.600;8.034;2024-03-06T02:19:18;0.20;;;0.20;;
32876;SDS011;19226;51.600;8.034;2024-03-06T02:22:03;0.30;;;0.30;;
32876;SDS011;19226;51.600;8.034;2024-03-06T02:24:48;0.22;;;0.22;;
32876;SDS011;19226;51.600;8.034;2024-03-06T02:27:33;0.20;;;0.20;;
32876;SDS011;19226;51.600;8.034;2024-03-06T02:30:21;0.20;;;0.20;;
32876;SDS011;19226;51.600;8.034;2024-03-06T02:33:05;0.20;;;0.20;;
32876;SDS011;19226;51.600;8.034;2024-03-06T02:35:50;0.30;;;0.30;;
32876;SDS011;19226;51.600;8.034;2024-03-06T02:38:34;0.30;;;0.30;;
32876;SDS011;19226;51.600;8.034;2024-03-06T02:41:20;0.20;;;0.20;;
32876;SDS011;19226;51.600;8.034;2024-03-06T02:44:05;0.22;;;0.22;;
32876;SDS011;19226;51.600;8.034;2024-03-06T02:46:51;0.30;;;0.30;;
32876;SDS011;19226;51.600;8.034;2024-03-06T02:49:35;0.28;;;0.28;;
32876;SDS011;19226;51.600;8.034;2024-03-06T02:52:20;0.30;;;0.30;;
32876;SDS011;19226;51.600;8.034;2024-03-06T02:55:04;0.30;;;0.30;;
32876;SDS011;19226;51.600;8.034;2024-03-06T02:57:49;0.20;;;0.20;;
32876;SDS011;19226;51.600;8.034;2024-03-06T03:00:34;0.30;;;0.30;;
32876;SDS011;19226;51.600;8.034;2024-03-06T03:03:18;0.20;;;0.20;;
32876;SDS011;19226;51.600;8.034;2024-03-06T03:06:03;0.25;;;0.25;;
32876;SDS011;19226;51.600;8.034;2024-03-06T03:08:48;0.20;;;0.20;;
32876;SDS011;19226;51.600;8.034;2024-03-06T03:11:33;0.20;;;0.20;;
32876;SDS011;19226;51.600;8.034;2024-03-06T03:14:20;0.20;;;0.20;;
32876;SDS011;19226;51.600;8.034;2024-03-06T03:17:04;0.30;;;0.30;;
32876;SDS011;19226;51.600;8.034;2024-03-06T03:19:49;0.20;;;0.20;;
32876;SDS011;19226;51.600;8.034;2024-03-06T03:22:34;0.20;;;0.20;;
32876;SDS011;19226;51.600;8.034;2024-03-06T03:25:18;0.30;;;0.30;;
32876;SDS011;19226;51.600;8.034;2024-03-06T03:28:05;0.20;;;0.20;;
32876;SDS011;19226;51.600;8.034;2024-03-06T03:30:50;0.20;;;0.20;;
32876;SDS011;19226;51.600;8.034;2024-03-06T03:33:43;0.20;;;0.20;;
32876;SDS011;19226;51.600;8.034;2024-03-06T03:36:28;0.30;;;0.30;;
32876;SDS011;19226;51.600;8.034;2024-03-06T03:39:12;0.30;;;0.30;;
32876;SDS011;19226;51.600;8.034;2024-03-06T03:41:59;0.20;;;0.20;;
32876;SDS011;19226;51.600;8.034;2024-03-06T03:44:44;0.20;;;0.20;;
32876;SDS011;19226;51.600;8.034;2024-03-06T03:47:28;0.30;;;0.30;;
32876;SDS011;19226;51.600;8.034;2024-03-06T03:50:13;0.30;;;0.30;;
32876;SDS011;19226;51.600;8.034;2024-03-06T03:52:58;0.30;;;0.30;;
32876;SDS011;19226;51.600;8.034;2024-03-06T03:55:44;0.20;;;0.20;;
32876;SDS011;19226;51.600;8.034;2024-03-06T03:58:29;0.30;;;0.30;;
32876;SDS011;19226;51.600;8.034;2024-03-06T04:01:14;0.30;;;0.30;;
32876;SDS011;19226;51.600;8.034;2024-03-06T04:03:59;0.20;;;0.20;;
32876;SDS011;19226;51.600;8.034;2024-03-06T04:06:43;0.20;;;0.20;;
32876;SDS011;19226;51.600;8.034;2024-03-06T04:09:29;0.20;;;0.20;;
32876;SDS011;19226;51.600;8.034;2024-03-06T04:12:14;0.20;;;0.20;;
32876;SDS011;19226;51.600;8.034;2024-03-06T04:14:58;0.20;;;0.20;;
32876;SDS011;19226;51.600;8.034;2024-03-06T04:17:43;0.20;;;0.20;;
32876;SDS011;19226;51.600;8.034;2024-03-06T04:20:28;0.30;;;0.30;;
32876;SDS011;19226;51.600;8.034;2024-03-06T04:23:12;0.20;;;0.20;;
32876;SDS011;19226;51.600;8.034;2024-03-06T04:25:57;0.25;;;0.25;;
32876;SDS011;19226;51.600;8.034;2024-03-06T04:28:41;0.20;;;0.20;;
32876;SDS011;19226;51.600;8.034;2024-03-06T04:31:26;0.20;;;0.20;;
32876;SDS011;19226;51.600;8.034;2024-03-06T04:34:10;0.20;;;0.20;;
32876;SDS011;19226;51.600;8.034;2024-03-06T04:36:55;0.30;;;0.30;;
32876;SDS011;19226;51.600;8.034;2024-03-06T04:39:39;0.30;;;0.30;;
32876;SDS011;19226;51.600;8.034;2024-03-06T04:42:25;0.30;;;0.30;;
32876;SDS011;19226;51.600;8.034;2024-03-06T04:45:14;0.20;;;0.20;;
32876;SDS011;19226;51.600;8.034;2024-03-06T04:48:00;0.20;;;0.20;;
32876;SDS011;19226;51.600;8.034;2024-03-06T04:50:45;0.30;;;0.30;;
32876;SDS011;19226;51.600;8.034;2024-03-06T04:53:30;0.35;;;0.35;;
32876;SDS011;19226;51.600;8.034;2024-03-06T04:56:15;0.30;;;0.30;;
32876;SDS011;19226;51.600;8.034;2024-03-06T04:59:02;0.30;;;0.30;;
32876;SDS011;19226;51.600;8.034;2024-03-06T05:01:47;0.30;;;0.30;;
32876;SDS011;19226;51.600;8.034;2024-03-06T05:04:31;0.30;;;0.30;;
32876;SDS011;19226;51.600;8.034;2024-03-06T05:07:16;0.30;;;0.30;;
32876;SDS011;19226;51.600;8.034;2024-03-06T05:10:00;0.20;;;0.20;;
32876;SDS011;19226;51.600;8.034;2024-03-06T05:12:45;0.30;;;0.30;;
32876;SDS011;19226;51.600;8.034;2024-03-06T05:15:29;0.30;;;0.30;;
32876;SDS011;19226;51.600;8.034;2024-03-06T05:18:14;0.28;;;0.28;;
32876;SDS011;19226;51.600;8.034;2024-03-06T05:20:59;0.20;;;0.20;;
32876;SDS011;19226;51.600;8.034;2024-03-06T05:23:44;0.30;;;0.30;;
32876;SDS011;19226;51.600;8.034;2024-03-06T05:26:28;0.30;;;0.30;;
32876;SDS011;19226;51.600;8.034;2024-03-06T05:29:12;0.20;;;0.20;;
32876;SDS011;19226;51.600;8.034;2024-03-06T05:31:57;0.20;;;0.20;;
32876;SDS011;19226;51.600;8.034;2024-03-06T05:34:42;0.22;;;0.22;;
32876;SDS011;19226;51.600;8.034;2024-03-06T05:37:27;0.30;;;0.30;;
32876;SDS011;19226;51.600;8.034;2024-03-06T05:40:12;0.20;;;0.20;;
32876;SDS011;19226;51.600;8.034;2024-03-06T05:42:57;0.20;;;0.20;;
32876;SDS011;19226;51.600;8.034;2024-03-06T05:45:42;0.25;;;0.25;;
32876;SDS011;19226;51.600;8.034;2024-03-06T05:48:26;0.30;;;0.30;;
32876;SDS011;19226;51.600;8.034;2024-03-06T05:51:11;0.30;;;0.30;;
32876;SDS011;19226;51.600;8.034;2024-03-06T05:53:55;0.20;;;0.20;;
32876;SDS011;19226;51.600;8.034;2024-03-06T05:56:40;0.20;;;0.20;;
32876;SDS011;19226;51.600;8.034;2024-03-06T05:59:26;0.20;;;0.20;;
32876;SDS011;19226;51.600;8.034;2024-03-06T06:02:10;0.30;;;0.30;;
32876;SDS011;19226;51.600;8.034;2024-03-06T06:04:55;0.30;;;0.30;;
32876;SDS011;19226;51.600;8.034;2024-03-06T06:07:39;0.22;;;0.22;;
32876;SDS011;19226;51.600;8.034;2024-03-06T06:10:24;0.30;;;0.30;;
32876;SDS011;19226;51.600;8.034;2024-03-06T06:13:08;0.20;;;0.20;;
32876;SDS011;19226;51.600;8.034;2024-03-06T06:15:53;0.20;;;0.20;;
32876;SDS011;19226;51.600;8.034;2024-03-06T06:18:40;0.20;;;0.20;;
32876;SDS011;19226;51.600;8.034;2024-03-06T06:21:25;0.30;;;0.30;;
32876;SDS011;19226;51.600;8.034;2024-03-06T06:24:10;0.20;;;0.20;;
32876;SDS011;19226;51.600;8.034;2024-03-06T06:26:55;0.25;;;0.25;;
32876;SDS011;19226;51.600;8.034;2024-03-06T06:29:40;0.28;;;0.28;;
32876;SDS011;19226;51.600;8.034;2024-03-06T06:32:25;0.30;;;0.30;;
32876;SDS011;19226;51.600;8.034;2024-03-06T06:35:10;0.28;;;0.28;;
32876;SDS011;19226;51.600;8.034;2024-03-06T06:37:56;0.30;;;0.30;;
32876;SDS011;19226;51.600;8.034;2024-03-06T06:40:41;0.20;;;0.20;;
32876;SDS011;19226;51.600;8.034;2024-03-06T06:43:25;0.30;;;0.30;;
32876;SDS011;19226;51.600;8.034;2024-03-06T06:46:10;0.30;;;0.30;;
32876;SDS011;19226;51.600;8.034;2024-03-06T06:48:55;0.30;;;0.30;;
32876;SDS011;19226;51.600;8.034;2024-03-06T06:51:39;0.20;;;0.20;;
32876;SDS011;19226;51.600;8.034;2024-03-06T06:54:24;0.30;;;0.30;;
32876;SDS011;19226;51.600;8.034;2024-03-06T06:57:09;0.30;;;0.30;;
32876;SDS011;19226;51.600;8.034;2024-03-06T06:59:53;0.20;;;0.20;;
32876;SDS011;19226;51.600;8.034;2024-03-06T07:02:38;0.30;;;0.30;;
32876;SDS011;19226;51.600;8.034;2024-03-06T07:05:23;0.20;;;0.20;;
32876;SDS011;19226;51.600;8.034;2024-03-06T07:08:08;0.30;;;0.30;;
32876;SDS011;19226;51.600;8.034;2024-03-06T07:10:52;0.30;;;0.30;;
32876;SDS011;19226;51.600;8.034;2024-03-06T07:13:38;0.30;;;0.30;;
32876;SDS011;19226;51.600;8.034;2024-03-06T07:16:22;0.30;;;0.30;;
32876;SDS011;19226;51.600;8.034;2024-03-06T07:19:07;0.25;;;0.25;;
32876;SDS011;19226;51.600;8.034;2024-03-06T07:21:52;0.30;;;0.30;;
32876;SDS011;19226;51.600;8.034;2024-03-06T07:24:37;0.25;;;0.25;;
32876;SDS011;19226;51.600;8.034;2024-03-06T07:27:21;0.30;;;0.30;;
32876;SDS011;19226;51.600;8.034;2024-03-06T07:30:06;0.30;;;0.30;;
32876;SDS011;19226;51.600;8.034;2024-03-06T07:32:51;0.20;;;0.20;;
32876;SDS011;19226;51.600;8.034;2024-03-06T07:35:36;0.30;;;0.30;;
32876;SDS011;19226;51.600;8.034;2024-03-06T07:38:21;0.20;;;0.20;;
32876;SDS011;19226;51.600;8.034;2024-03-06T07:41:05;0.20;;;0.20;;
32876;SDS011;19226;51.600;8.034;2024-03-06T07:43:50;0.30;;;0.30;;
32876;SDS011;19226;51.600;8.034;2024-03-06T07:46:34;0.20;;;0.20;;
32876;SDS011;19226;51.600;8.034;2024-03-06T07:49:19;0.20;;;0.20;;
32876;SDS011;19226;51.600;8.034;2024-03-06T07:52:05;0.20;;;0.20;;
32876;SDS011;19226;51.600;8.034;2024-03-06T07:54:50;0.20;;;0.20;;
32876;SDS011;19226;51.600;8.034;2024-03-06T07:57:34;0.20;;;0.20;;
32876;SDS011;19226;51.600;8.034;2024-03-06T08:00:19;0.30;;;0.30;;
32876;SDS011;19226;51.600;8.034;2024-03-06T08:03:04;0.30;;;0.30;;
32876;SDS011;19226;51.600;8.034;2024-03-06T08:05:51;0.20;;;0.20;;
32876;SDS011;19226;51.600;8.034;2024-03-06T08:08:42;0.20;;;0.20;;
32876;SDS011;19226;51.600;8.034;2024-03-06T08:11:29;0.20;;;0.20;;
32876;SDS011;19226;51.600;8.034;2024-03-06T08:14:14;0.20;;;0.20;;
32876;SDS011;19226;51.600;8.034;2024-03-06T08:17:01;0.20;;;0.20;;
32876;SDS011;19226;51.600;8.034;2024-03-06T08:19:46;0.20;;;0.20;;
32876;SDS011;19226;51.600;8.034;2024-03-06T08:22:31;0.20;;;0.20;;
32876;SDS011;19226;51.600;8.034;2024-03-06T08:25:15;0.20;;;0.20;;
32876;SDS011;19226;51.600;8.034;2024-03-06T08:28:02;0.20;;;0.20;;
32876;SDS011;19226;51.600;8.034;2024-03-06T08:30:49;0.25;;;0.25;;
32876;SDS011;19226;51.600;8.034;2024-03-06T08:33:35;0.10;;;0.10;;
32876;SDS011;19226;51.600;8.034;2024-03-06T08:36:19;0.20;;;0.20;;
32876;SDS011;19226;51.600;8.034;2024-03-06T08:39:04;0.20;;;0.20;;
32876;SDS011;19226;51.600;8.034;2024-03-06T08:41:49;0.20;;;0.20;;
32876;SDS011;19226;51.600;8.034;2024-03-06T08:44:34;0.20;;;0.20;;
32876;SDS011;19226;51.600;8.034;2024-03-06T08:47:18;0.20;;;0.20;;
32876;SDS011;19226;51.600;8.034;2024-03-06T08:50:03;0.17;;;0.17;;
32876;SDS011;19226;51.600;8.034;2024-03-06T08:52:48;0.20;;;0.20;;
32876;SDS011;19226;51.600;8.034;2024-03-06T08:55:32;0.20;;;0.20;;
32876;SDS011;19226;51.600;8.034;2024-03-06T08:58:17;0.20;;;0.20;;
32876;SDS011;19226;51.600;8.034;2024-03-06T09:01:02;0.20;;;0.20;;
32876;SDS011;19226;51.600;8.034;2024-03-06T09:03:47;0.10;;;0.10;;
32876;SDS011;19226;51.600;8.034;2024-03-06T09:06:31;0.20;;;0.20;;
32876;SDS011;19226;51.600;8.034;2024-03-06T09:09:15;0.20;;;0.20;;
32876;SDS011;19226;51.600;8.034;2024-03-06T09:12:00;0.10;;;0.10;;
32876;SDS011;19226;51.600;8.034;2024-03-06T09:14:45;0.10;;;0.10;;
32876;SDS011;19226;51.600;8.034;2024-03-06T09:17:30;0.20;;;0.20;;
32876;SDS011;19226;51.600;8.034;2024-03-06T09:20:15;0.10;;;0.10;;
32876;SDS011;19226;51.600;8.034;2024-03-06T09:23:00;0.10;;;0.10;;
32876;SDS011;19226;51.600;8.034;2024-03-06T09:25:44;0.10;;;0.10;;
32876;SDS011;19226;51.600;8.034;2024-03-06T09:28:30;0.10;;;0.10;;
32876;SDS011;19226;51.600;8.034;2024-03-06T09:31:15;0.15;;;0.15;;
32876;SDS011;19226;51.600;8.034;2024-03-06T09:33:59;0.10;;;0.10;;
32876;SDS011;19226;51.600;8.034;2024-03-06T09:36:47;0.10;;;0.10;;
32876;SDS011;19226;51.600;8.034;2024-03-06T09:39:33;0.10;;;0.10;;
32876;SDS011;19226;51.600;8.034;2024-03-06T09:42:18;0.10;;;0.10;;
32876;SDS011;19226;51.600;8.034;2024-03-06T09:45:03;0.10;;;0.10;;
32876;SDS011;19226;51.600;8.034;2024-03-06T09:47:49;0.10;;;0.10;;
32876;SDS011;19226;51.600;8.034;2024-03-06T09:50:37;0.10;;;0.10;;
32876;SDS011;19226;51.600;8.034;2024-03-06T09:53:27;0.10;;;0.10;;
32876;SDS011;19226;51.600;8.034;2024-03-06T09:56:15;0.10;;;0.10;;
32876;SDS011;19226;51.600;8.034;2024-03-06T09:59:00;0.10;;;0.10;;
32876;SDS011;19226;51.600;8.034;2024-03-06T10:01:48;0.10;;;0.10;;
32876;SDS011;19226;51.600;8.034;2024-03-06T10:04:40;0.10;;;0.10;;
32876;SDS011;19226;51.600;8.034;2024-03-06T10:07:25;0.10;;;0.10;;
32876;SDS011;19226;51.600;8.034;2024-03-06T10:10:11;0.10;;;0.10;;
32876;SDS011;19226;51.600;8.034;2024-03-06T10:12:57;0.10;;;0.10;;
32876;SDS011;19226;51.600;8.034;2024-03-06T10:15:57;0.10;;;0.10;;
32876;SDS011;19226;51.600;8.034;2024-03-06T10:18:45;0.10;;;0.10;;
32876;SDS011;19226;51.600;8.034;2024-03-06T10:21:29;0.10;;;0.10;;
32876;SDS011;19226;51.600;8.034;2024-03-06T10:24:26;0.10;;;0.10;;
32876;SDS011;19226;51.600;8.034;2024-03-06T10:27:14;0.10;;;0.10;;
32876;SDS011;19226;51.600;8.034;2024-03-06T10:30:03;0.00;;;0.00;;
32876;SDS011;19226;51.600;8.034;2024-03-06T10:32:49;0.10;;;0.10;;
32876;SDS011;19226;51.600;8.034;2024-03-06T10:35:34;0.10;;;0.10;;
32876;SDS011;19226;51.600;8.034;2024-03-06T10:38:22;0.10;;;0.10;;
32876;SDS011;19226;51.600;8.034;2024-03-06T10:41:10;0.10;;;0.10;;
32876;SDS011;19226;51.600;8.034;2024-03-06T10:43:58;0.10;;;0.10;;
32876;SDS011;19226;51.600;8.034;2024-03-06T10:46:44;0.10;;;0.10;;
32876;SDS011;19226;51.600;8.034;2024-03-06T10:49:31;0.10;;;0.10;;
32876;SDS011;19226;51.600;8.034;2024-03-06T10:52:18;0.10;;;0.10;;
32876;SDS011;19226;51.600;8.034;2024-03-06T10:55:03;0.10;;;0.10;;
32876;SDS011;19226;51.600;8.034;2024-03-06T10:57:48;0.10;;;0.10;;
32876;SDS011;19226;51.600;8.034;2024-03-06T11:00:40;0.00;;;0.00;;
32876;SDS011;19226;51.600;8.034;2024-03-06T11:03:26;0.10;;;0.10;;
32876;SDS011;19226;51.600;8.034;2024-03-06T11:06:13;0.10;;;0.10;;
32876;SDS011;19226;51.600;8.034;2024-03-06T11:08:58;0.10;;;0.10;;
32876;SDS011;19226;51.600;8.034;2024-03-06T11:11:50;0.10;;;0.10;;
32876;SDS011;19226;51.600;8.034;2024-03-06T11:14:36;0.10;;;0.10;;
32876;SDS011;19226;51.600;8.034;2024-03-06T11:17:27;0.10;;;0.10;;
32876;SDS011;19226;51.600;8.034;2024-03-06T11:20:13;0.10;;;0.10;;
32876;SDS011;19226;51.600;8.034;2024-03-06T11:28:39;0.10;;;0.10;;
32876;SDS011;19226;51.600;8.034;2024-03-06T11:31:33;0.10;;;0.10;;
32876;SDS011;19226;51.600;8.034;2024-03-06T11:34:19;0.10;;;0.10;;
32876;SDS011;19226;51.600;8.034;2024-03-06T11:37:07;0.10;;;0.10;;
32876;SDS011;19226;51.600;8.034;2024-03-06T11:39:52;0.10;;;0.10;;
32876;SDS011;19226;51.600;8.034;2024-03-06T11:42:44;0.10;;;0.10;;
32876;SDS011;19226;51.600;8.034;2024-03-06T11:45:33;0.10;;;0.10;;
32876;SDS011;19226;51.600;8.034;2024-03-06T11:48:27;0.10;;;0.10;;
32876;SDS011;19226;51.600;8.034;2024-03-06T11:51:12;0.10;;;0.10;;
32876;SDS011;19226;51.600;8.034;2024-03-06T11:53:58;0.10;;;0.10;;
32876;SDS011;19226;51.600;8.034;2024-03-06T11:56:44;0.10;;;0.10;;
32876;SDS011;19226;51.600;8.034;2024-03-06T11:59:35;0.10;;;0.10;;
32876;SDS011;19226;51.600;8.034;2024-03-06T12:02:22;0.10;;;0.10;;
32876;SDS011;19226;51.600;8.034;2024-03-06T12:05:06;0.00;;;0.00;;
32876;SDS011;19226;51.600;8.034;2024-03-06T12:07:54;0.10;;;0.10;;
32876;SDS011;19226;51.600;8.034;2024-03-06T12:10:38;0.00;;;0.00;;
32876;SDS011;19226;51.600;8.034;2024-03-06T12:13:24;0.10;;;0.10;;
32876;SDS011;19226;51.600;8.034;2024-03-06T12:16:09;0.10;;;0.10;;
32876;SDS011;19226;51.600;8.034;2024-03-06T12:18:55;0.00;;;0.00;;
32876;SDS011;19226;51.600;8.034;2024-03-06T12:21:41;0.10;;;0.10;;
32876;SDS011;19226;51.600;8.034;2024-03-06T12:24:26;0.10;;;0.10;;
32876;SDS011;19226;51.600;8.034;2024-03-06T12:27:11;0.00;;;0.00;;
32876;SDS011;19226;51.600;8.034;2024-03-06T12:29:56;0.10;;;0.10;;
32876;SDS011;19226;51.600;8.034;2024-03-06T12:32:41;0.10;;;0.10;;
32876;SDS011;19226;51.600;8.034;2024-03-06T12:35:26;0.00;;;0.00;;
32876;SDS011;19226;51.600;8.034;2024-03-06T12:38:11;0.00;;;0.00;;
32876;SDS011;19226;51.600;8.034;2024-03-06T12:40:59;0.10;;;0.10;;
32876;SDS011;19226;51.600;8.034;2024-03-06T12:43:44;0.00;;;0.00;;
32876;SDS011;19226;51.600;8.034;2024-03-06T12:46:29;0.00;;;0.00;;
32876;SDS011;19226;51.600;8.034;2024-03-06T12:49:14;0.10;;;0.10;;
32876;SDS011;19226;51.600;8.034;2024-03-06T12:51:58;0.00;;;0.00;;
32876;SDS011;19226;51.600;8.034;2024-03-06T12:54:43;0.00;;;0.00;;
32876;SDS011;19226;51.600;8.034;2024-03-06T12:57:27;0.10;;;0.10;;
32876;SDS011;19226;51.600;8.034;2024-03-06T13:00:12;0.00;;;0.00;;
32876;SDS011;19226;51.600;8.034;2024-03-06T13:03:00;0.00;;;0.00;;
32876;SDS011;19226;51.600;8.034;2024-03-06T13:05:45;0.00;;;0.00;;
32876;SDS011;19226;51.600;8.034;2024-03-06T13:08:31;0.00;;;0.00;;
32876;SDS011;19226;51.600;8.034;2024-03-06T13:11:15;0.00;;;0.00;;
32876;SDS011;19226;51.600;8.034;2024-03-06T13:14:00;0.00;;;0.00;;
32876;SDS011;19226;51.600;8.034;2024-03-06T13:16:44;0.00;;;0.00;;
32876;SDS011;19226;51.600;8.034;2024-03-06T13:19:29;0.00;;;0.00;;
32876;SDS011;19226;51.600;8.034;2024-03-06T13:22:14;0.00;;;0.00;;
32876;SDS011;19226;51.600;8.034;2024-03-06T13:24:58;0.00;;;0.00;;
32876;SDS011;19226;51.600;8.034;2024-03-06T13:27:43;0.00;;;0.00;;
32876;SDS011;19226;51.600;8.034;2024-03-06T13:30:27;0.00;;;0.00;;
32876;SDS011;19226;51.600;8.034;2024-03-06T13:33:12;0.00;;;0.00;;
32876;SDS011;19226;51.600;8.034;2024-03-06T13:35:57;0.00;;;0.00;;
32876;SDS011;19226;51.600;8.034;2024-03-06T13:38:41;0.00;;;0.00;;
32876;SDS011;19226;51.600;8.034;2024-03-06T13:41:26;0.00;;;0.00;;
32876;SDS011;19226;51.600;8.034;2024-03-06T13:44:10;0.00;;;0.00;;
32876;SDS011;19226;51.600;8.034;2024-03-06T13:46:58;0.00;;;0.00;;
32876;SDS011;19226;51.600;8.034;2024-03-06T13:49:42;0.00;;;0.00;;
32876;SDS011;19226;51.600;8.034;2024-03-06T13:52:27;0.00;;;0.00;;
32876;SDS011;19226;51.600;8.034;2024-03-06T13:55:12;0.00;;;0.00;;
32876;SDS011;19226;51.600;8.034;2024-03-06T13:57:56;0.00;;;0.00;;
32876;SDS011;19226;51.600;8.034;2024-03-06T14:00:41;0.00;;;0.00;;
32876;SDS011;19226;51.600;8.034;2024-03-06T14:03:25;0.00;;;0.00;;
32876;SDS011;19226;51.600;8.034;2024-03-06T14:06:10;0.00;;;0.00;;
32876;SDS011;19226;51.600;8.034;2024-03-06T14:08:54;0.00;;;0.00;;
32876;SDS011;19226;51.600;8.034;2024-03-06T14:11:39;0.00;;;0.00;;
32876;SDS011;19226;51.600;8.034;2024-03-06T14:14:24;0.00;;;0.00;;
32876;SDS011;19226;51.600;8.034;2024-03-06T14:17:08;0.00;;;0.00;;
32876;SDS011;19226;51.600;8.034;2024-03-06T14:19:53;0.00;;;0.00;;
32876;SDS011;19226;51.600;8.034;2024-03-06T14:22:38;0.00;;;0.00;;
32876;SDS011;19226;51.600;8.034;2024-03-06T14:25:22;0.00;;;0.00;;
32876;SDS011;19226;51.600;8.034;2024-03-06T14:28:07;0.00;;;0.00;;
32876;SDS011;19226;51.600;8.034;2024-03-06T14:30:51;0.00;;;0.00;;
32876;SDS011;19226;51.600;8.034;2024-03-06T14:33:39;0.00;;;0.00;;
32876;SDS011;19226;51.600;8.034;2024-03-06T14:36:24;0.00;;;0.00;;
32876;SDS011;19226;51.600;8.034;2024-03-06T14:39:09;0.00;;;0.00;;
32876;SDS011;19226;51.600;8.034;2024-03-06T14:41:55;0.00;;;0.00;;
32876;SDS011;19226;51.600;8.034;2024-03-06T14:44:40;0.00;;;0.00;;
32876;SDS011;19226;51.600;8.034;2024-03-06T14:47:28;0.00;;;0.00;;
32876;SDS011;19226;51.600;8.034;2024-03-06T14:50:13;0.00;;;0.00;;
32876;SDS011;19226;51.600;8.034;2024-03-06T14:52:58;0.00;;;0.00;;
32876;SDS011;19226;51.600;8.034;2024-03-06T14:55:43;0.00;;;0.00;;
32876;SDS011;19226;51.600;8.034;2024-03-06T14:58:27;0.00;;;0.00;;
32876;SDS011;19226;51.600;8.034;2024-03-06T15:01:12;0.00;;;0.00;;
32876;SDS011;19226;51.600;8.034;2024-03-06T15:03:57;0.00;;;0.00;;
32876;SDS011;19226;51.600;8.034;2024-03-06T15:06:42;0.00;;;0.00;;
32876;SDS011;19226;51.600;8.034;2024-03-06T15:09:27;0.00;;;0.00;;
32876;SDS011;19226;51.600;8.034;2024-03-06T15:12:12;0.00;;;0.00;;
32876;SDS011;19226;51.600;8.034;2024-03-06T15:14:56;0.00;;;0.00;;
32876;SDS011;19226;51.600;8.034;2024-03-06T15:17:42;0.00;;;0.00;;
32876;SDS011;19226;51.600;8.034;2024-03-06T15:20:27;0.00;;;0.00;;
32876;SDS011;19226;51.600;8.034;2024-03-06T15:23:12;0.00;;;0.00;;
32876;SDS011;19226;51.600;8.034;2024-03-06T15:25:59;0.00;;;0.00;;
32876;SDS011;19226;51.600;8.034;2024-03-06T15:28:43;0.00;;;0.00;;
32876;SDS011;19226;51.600;8.034;2024-03-06T15:31:29;0.00;;;0.00;;
32876;SDS011;19226;51.600;8.034;2024-03-06T15:34:13;0.00;;;0.00;;
32876;SDS011;19226;51.600;8.034;2024-03-06T15:36:58;0.00;;;0.00;;
32876;SDS011;19226;51.600;8.034;2024-03-06T15:39:43;0.00;;;0.00;;
32876;SDS011;19226;51.600;8.034;2024-03-06T15:42:28;0.00;;;0.00;;
32876;SDS011;19226;51.600;8.034;2024-03-06T15:45:13;0.00;;;0.00;;
32876;SDS011;19226;51.600;8.034;2024-03-06T15:47:57;0.00;;;0.00;;
32876;SDS011;19226;51.600;8.034;2024-03-06T15:50:42;0.00;;;0.00;;
32876;SDS011;19226;51.600;8.034;2024-03-06T15:53:27;0.00;;;0.00;;
32876;SDS011;19226;51.600;8.034;2024-03-06T15:56:13;0.00;;;0.00;;
32876;SDS011;19226;51.600;8.034;2024-03-06T15:58:58;0.00;;;0.00;;
32876;SDS011;19226;51.600;8.034;2024-03-06T16:01:43;0.00;;;0.00;;
32876;SDS011;19226;51.600;8.034;2024-03-06T16:04:28;0.00;;;0.00;;
32876;SDS011;19226;51.600;8.034;2024-03-06T16:07:12;0.00;;;0.00;;
32876;SDS011;19226;51.600;8.034;2024-03-06T16:09:57;0.00;;;0.00;;
32876;SDS011;19226;51.600;8.034;2024-03-06T16:12:42;0.00;;;0.00;;
32876;SDS011;19226;51.600;8.034;2024-03-06T16:15:27;0.00;;;0.00;;
32876;SDS011;19226;51.600;8.034;2024-03-06T16:18:12;0.10;;;0.10;;
32876;SDS011;19226;51.600;8.034;2024-03-06T16:20:56;0.00;;;0.00;;
32876;SDS011;19226;51.600;8.034;2024-03-06T16:23:40;0.00;;;0.00;;
32876;SDS011;19226;51.600;8.034;2024-03-06T16:26:28;0.00;;;0.00;;
32876;SDS011;19226;51.600;8.034;2024-03-06T16:29:13;0.10;;;0.10;;
32876;SDS011;19226;51.600;8.034;2024-03-06T16:31:58;0.00;;;0.00;;
32876;SDS011;19226;51.600;8.034;2024-03-06T16:34:42;0.00;;;0.00;;
32876;SDS011;19226;51.600;8.034;2024-03-06T16:37:28;0.00;;;0.00;;
32876;SDS011;19226;51.600;8.034;2024-03-06T16:40:12;0.10;;;0.10;;
32876;SDS011;19226;51.600;8.034;2024-03-06T16:42:57;0.00;;;0.00;;